createdAt,value
2018-08-04T00:01:32.698Z,16.48
2018-08-04T00:04:04.255Z,17.27
2018-08-04T00:06:36.336Z,15.95
2018-08-04T00:09:12.725Z,16.25
2018-08-04T00:11:44.865Z,17.02
2018-08-04T00:14:16.306Z,17.87
2018-08-04T00:16:47.911Z,15.30
2018-08-04T00:19:19.310Z,15.70
2018-08-04T00:21:50.803Z,15.70
2018-08-04T00:24:22.227Z,14.78
2018-08-04T00:26:53.736Z,15.20
2018-08-04T00:29:25.275Z,19.05
2018-08-04T00:31:56.611Z,21.75
2018-08-04T00:34:28.046Z,22.15
2018-08-04T00:36:59.406Z,42.70
2018-08-04T00:39:30.950Z,37.67
2018-08-04T00:42:02.413Z,18.73
2018-08-04T00:44:33.829Z,17.85
2018-08-04T00:47:05.292Z,19.77
2018-08-04T00:49:36.872Z,17.45
2018-08-04T00:52:08.397Z,18.65
2018-08-04T00:54:39.959Z,20.23
2018-08-04T00:57:11.429Z,21.15
2018-08-04T00:59:42.897Z,17.95
2018-08-04T01:02:14.291Z,19.52
2018-08-04T01:04:45.869Z,17.60
2018-08-04T01:07:17.235Z,17.55
2018-08-04T01:09:48.665Z,16.77
2018-08-04T01:12:20.191Z,17.90
2018-08-04T01:14:51.693Z,17.23
2018-08-04T01:17:23.310Z,18.60
2018-08-04T01:19:54.936Z,18.05
2018-08-04T01:22:26.485Z,18.07
2018-08-04T01:24:58.051Z,18.48
2018-08-04T01:27:29.427Z,19.07
2018-08-04T01:30:01.240Z,19.57
2018-08-04T01:32:32.744Z,17.32
2018-08-04T01:35:04.156Z,17.48
2018-08-04T01:37:35.578Z,18.10
2018-08-04T01:40:07.956Z,18.10
2018-08-04T01:42:39.276Z,17.25
2018-08-04T01:45:10.939Z,16.90
2018-08-04T01:47:42.203Z,18.15
2018-08-04T01:50:13.745Z,17.30
2018-08-04T01:52:45.236Z,17.40
2018-08-04T01:55:16.653Z,17.60
2018-08-04T01:57:48.144Z,16.87
2018-08-04T02:00:19.550Z,18.25
2018-08-04T02:02:51.022Z,18.20
2018-08-04T02:05:22.451Z,16.77
2018-08-04T02:07:54.405Z,17.85
2018-08-04T02:10:25.839Z,18.12
2018-08-04T02:12:57.223Z,17.42
2018-08-04T02:15:28.607Z,17.37
2018-08-04T02:17:59.878Z,17.32
2018-08-04T02:20:31.299Z,17.67
2018-08-04T02:23:02.748Z,18.95
2018-08-04T02:25:34.253Z,16.20
2018-08-04T02:28:05.764Z,15.93
2018-08-04T02:30:37.151Z,23.62
2018-08-04T02:33:08.680Z,17.57
2018-08-04T02:35:40.112Z,17.17
2018-08-04T02:38:10.902Z,15.43
2018-08-04T02:40:42.178Z,15.53
2018-08-04T02:43:13.513Z,14.68
2018-08-04T02:45:45.011Z,14.85
2018-08-04T02:48:16.488Z,14.68
2018-08-04T02:50:47.988Z,15.88
2018-08-04T02:53:19.110Z,15.85
2018-08-04T02:55:50.722Z,15.93
2018-08-04T02:58:22.094Z,17.00
2018-08-04T03:00:53.619Z,15.43
2018-08-04T03:03:25.538Z,16.02
2018-08-04T03:05:57.031Z,15.00
2018-08-04T03:08:28.415Z,20.00
2018-08-04T03:11:00.030Z,16.52
2018-08-04T03:13:31.462Z,15.00
2018-08-04T03:16:02.846Z,15.93
2018-08-04T03:18:34.379Z,15.35
2018-08-04T03:21:05.839Z,15.70
2018-08-04T03:23:37.234Z,17.40
2018-08-04T03:26:08.931Z,16.07
2018-08-04T03:28:40.343Z,15.75
2018-08-04T03:31:11.959Z,14.98
2018-08-04T03:33:43.433Z,18.60
2018-08-04T03:36:15.079Z,15.55
2018-08-04T03:38:46.673Z,16.20
2018-08-04T03:41:18.063Z,15.25
2018-08-04T03:43:49.420Z,14.68
2018-08-04T03:46:21.057Z,14.38
2018-08-04T03:48:52.420Z,14.83
2018-08-04T03:51:23.850Z,14.30
2018-08-04T03:53:55.216Z,13.95
2018-08-04T03:56:28.372Z,13.58
2018-08-04T03:58:59.870Z,14.07
2018-08-04T04:01:31.382Z,13.28
2018-08-04T04:04:03.113Z,13.08
2018-08-04T04:06:34.569Z,13.22
2018-08-04T04:09:08.196Z,13.05
2018-08-04T04:11:39.849Z,12.00
2018-08-04T04:14:11.261Z,12.13
2018-08-04T04:16:42.502Z,13.65
2018-08-04T04:19:13.863Z,12.63
2018-08-04T04:21:45.457Z,12.60
2018-08-04T04:24:16.902Z,11.88
2018-08-04T04:26:48.450Z,11.00
2018-08-04T04:29:20.015Z,16.82
2018-08-04T04:31:51.510Z,12.13
2018-08-04T04:34:23.174Z,12.37
2018-08-04T04:36:54.829Z,10.50
2018-08-04T04:39:26.596Z,10.63
2018-08-04T04:41:58.083Z,13.00
2018-08-04T04:44:29.411Z,12.47
2018-08-04T04:47:00.977Z,10.98
2018-08-04T04:49:32.406Z,10.60
2018-08-04T04:52:03.841Z,10.70
2018-08-04T04:54:35.354Z,11.03
2018-08-04T04:57:07.090Z,11.35
2018-08-04T04:59:38.966Z,12.85
2018-08-04T05:02:10.473Z,10.00
2018-08-04T05:04:41.934Z,11.95
2018-08-04T05:07:13.203Z,9.83
2018-08-04T05:09:44.654Z,10.53
2018-08-04T05:12:16.300Z,10.75
2018-08-04T05:14:47.737Z,11.03
2018-08-04T05:17:19.278Z,12.23
2018-08-04T05:19:50.928Z,11.05
2018-08-04T05:22:22.368Z,10.68
2018-08-04T05:24:53.740Z,10.85
2018-08-04T05:27:25.124Z,12.37
2018-08-04T05:29:56.554Z,12.18
2018-08-04T05:32:27.887Z,10.28
2018-08-04T05:34:59.027Z,10.82
2018-08-04T05:37:29.977Z,10.13
2018-08-04T05:40:01.250Z,10.68
2018-08-04T05:42:32.705Z,9.63
2018-08-04T05:45:03.995Z,10.13
2018-08-04T05:47:35.322Z,9.60
2018-08-04T05:50:07.134Z,11.20
2018-08-04T05:52:38.555Z,11.38
2018-08-04T05:55:10.106Z,11.57
2018-08-04T05:57:41.453Z,10.80
2018-08-04T06:00:12.759Z,11.18
2018-08-04T06:02:44.102Z,10.13
2018-08-04T06:05:15.540Z,9.68
2018-08-04T06:07:47.154Z,10.38
2018-08-04T06:10:18.486Z,9.83
2018-08-04T06:12:49.811Z,10.38
2018-08-04T06:15:21.288Z,10.18
2018-08-04T06:17:52.762Z,10.08
2018-08-04T06:20:23.794Z,10.88
2018-08-04T06:22:55.155Z,11.18
2018-08-04T06:25:26.580Z,9.95
2018-08-04T06:27:58.065Z,13.83
2018-08-04T06:30:29.715Z,15.32
2018-08-04T06:33:01.384Z,12.73
2018-08-04T06:35:32.732Z,13.60
2018-08-04T06:38:04.105Z,13.22
2018-08-04T06:40:35.907Z,11.88
2018-08-04T06:43:07.508Z,11.97
2018-08-04T06:45:39.117Z,13.75
2018-08-04T06:48:10.064Z,12.15
2018-08-04T06:50:41.518Z,12.60
2018-08-04T06:53:12.886Z,11.50
2018-08-04T06:55:44.408Z,13.62
2018-08-04T06:58:15.775Z,13.18
2018-08-04T07:00:47.302Z,11.80
2018-08-04T07:03:18.879Z,13.53
2018-08-04T07:05:50.586Z,13.20
2018-08-04T07:08:22.295Z,12.10
2018-08-04T07:10:53.757Z,11.90
2018-08-04T07:13:24.928Z,12.47
2018-08-04T07:15:56.773Z,11.35
2018-08-04T07:18:28.521Z,12.30
2018-08-04T07:20:59.928Z,12.13
2018-08-04T07:23:31.347Z,11.70
2018-08-04T07:26:02.841Z,11.30
2018-08-04T07:28:34.331Z,12.65
2018-08-04T07:31:06.278Z,11.83
2018-08-04T07:33:37.895Z,12.10
2018-08-04T07:36:09.175Z,12.70
2018-08-04T07:38:40.737Z,11.60
2018-08-04T07:41:12.205Z,13.15
2018-08-04T07:43:43.554Z,12.10
2018-08-04T07:46:15.124Z,11.78
2018-08-04T07:48:46.543Z,12.03
2018-08-04T07:51:18.080Z,12.43
2018-08-04T07:53:49.786Z,13.22
2018-08-04T07:56:21.227Z,12.55
2018-08-04T07:58:52.541Z,12.65
2018-08-04T08:01:24.392Z,12.78
2018-08-04T08:03:55.810Z,13.75
2018-08-04T08:06:27.206Z,12.10
2018-08-04T08:08:58.379Z,12.65
2018-08-04T08:11:29.706Z,12.43
2018-08-04T08:14:01.449Z,12.20
2018-08-04T08:16:33.912Z,13.80
2018-08-04T08:19:05.793Z,12.68
2018-08-04T08:21:37.190Z,12.10
2018-08-04T08:24:08.967Z,11.38
2018-08-04T08:26:40.528Z,12.35
2018-08-04T08:29:11.857Z,12.90
2018-08-04T08:31:43.294Z,13.50
2018-08-04T08:34:14.631Z,11.48
2018-08-04T08:36:46.063Z,12.30
2018-08-04T08:39:17.566Z,12.30
2018-08-04T08:41:48.958Z,11.55
2018-08-04T08:44:20.307Z,12.80
2018-08-04T08:46:51.918Z,11.73
2018-08-04T08:49:23.416Z,12.25
2018-08-04T08:51:55.383Z,11.70
2018-08-04T08:54:26.707Z,9.78
2018-08-04T08:56:58.134Z,14.05
2018-08-04T08:59:29.440Z,10.55
2018-08-04T09:02:01.047Z,10.48
2018-08-04T09:04:32.500Z,12.45
2018-08-04T09:07:03.977Z,12.10
2018-08-04T09:09:35.429Z,12.10
2018-08-04T09:12:06.913Z,10.75
2018-08-04T09:14:38.199Z,11.00
2018-08-04T09:17:09.675Z,11.85
2018-08-04T09:19:41.203Z,11.53
2018-08-04T09:22:12.678Z,11.43
2018-08-04T09:24:44.159Z,11.55
2018-08-04T09:27:15.459Z,12.82
2018-08-04T09:29:46.929Z,11.35
2018-08-04T09:32:18.539Z,10.70
2018-08-04T09:34:50.059Z,9.80
2018-08-04T09:37:21.496Z,10.23
2018-08-04T09:39:52.936Z,10.82
2018-08-04T09:42:24.636Z,10.08
2018-08-04T09:44:56.426Z,9.40
2018-08-04T09:47:27.439Z,10.70
2018-08-04T09:49:58.736Z,9.98
2018-08-04T09:52:30.482Z,10.80
2018-08-04T09:55:02.880Z,10.18
2018-08-04T09:57:34.278Z,9.25
2018-08-04T10:00:08.462Z,9.95
2018-08-04T10:02:40.168Z,9.85
2018-08-04T10:05:11.813Z,9.48
2018-08-04T10:07:43.274Z,9.68
2018-08-04T10:10:15.496Z,9.90
2018-08-04T10:12:48.580Z,10.13
2018-08-04T10:15:20.984Z,10.35
2018-08-04T10:17:52.764Z,10.48
2018-08-04T10:20:24.680Z,11.03
2018-08-04T10:22:56.178Z,10.75
2018-08-04T10:25:27.643Z,10.65
2018-08-04T10:27:59.003Z,10.38
2018-08-04T10:30:30.681Z,10.60
2018-08-04T10:33:02.222Z,10.05
2018-08-04T10:35:33.839Z,9.78
2018-08-04T10:38:05.303Z,12.13
2018-08-04T10:40:36.631Z,10.55
2018-08-04T10:43:08.083Z,10.88
2018-08-04T10:45:39.605Z,15.78
2018-08-04T10:48:11.015Z,12.98
2018-08-04T10:50:42.454Z,10.45
2018-08-04T10:53:13.869Z,9.78
2018-08-04T10:55:45.098Z,10.00
2018-08-04T10:58:16.420Z,9.78
2018-08-04T11:00:47.845Z,10.00
2018-08-04T11:03:19.090Z,10.03
2018-08-04T11:05:50.589Z,9.28
2018-08-04T11:08:22.007Z,9.45
2018-08-04T11:10:53.753Z,10.35
2018-08-04T11:13:25.182Z,10.18
2018-08-04T11:15:57.105Z,9.23
2018-08-04T11:18:28.510Z,12.60
2018-08-04T11:21:00.347Z,9.50
2018-08-04T11:23:32.283Z,8.75
2018-08-04T11:26:03.858Z,9.78
2018-08-04T11:28:35.299Z,9.43
2018-08-04T11:31:07.021Z,8.80
2018-08-04T11:33:38.610Z,9.05
2018-08-04T11:36:10.046Z,8.78
2018-08-04T11:38:41.483Z,9.40
2018-08-04T11:41:13.311Z,9.88
2018-08-04T11:43:44.635Z,9.05
2018-08-04T11:46:16.093Z,8.50
2018-08-04T11:48:47.289Z,7.90
2018-08-04T11:51:18.464Z,9.03
2018-08-04T11:53:49.823Z,8.33
2018-08-04T11:56:21.337Z,9.33
2018-08-04T11:58:52.723Z,8.48
2018-08-04T12:01:24.261Z,8.55
2018-08-04T12:03:55.499Z,9.88
2018-08-04T12:06:27.057Z,8.75
2018-08-04T12:08:58.544Z,9.63
2018-08-04T12:11:29.928Z,10.08
2018-08-04T12:14:01.352Z,9.68
2018-08-04T12:16:32.979Z,9.48
2018-08-04T12:19:04.442Z,9.08
2018-08-04T12:21:36.154Z,9.28
2018-08-04T12:24:07.714Z,9.53
2018-08-04T12:26:39.163Z,9.28
2018-08-04T12:29:10.461Z,9.05
2018-08-04T12:31:41.745Z,8.38
2018-08-04T12:34:13.244Z,8.98
2018-08-04T12:36:44.883Z,8.40
2018-08-04T12:39:16.439Z,8.58
2018-08-04T12:41:47.987Z,8.35
2018-08-04T12:44:19.302Z,7.58
2018-08-04T12:46:50.667Z,7.58
2018-08-04T12:49:21.460Z,7.70
2018-08-04T12:51:53.046Z,9.13
2018-08-04T12:54:24.339Z,8.80
2018-08-04T12:56:55.912Z,8.98
2018-08-04T12:59:27.334Z,9.20
2018-08-04T13:01:58.898Z,9.33
2018-08-04T13:04:30.133Z,8.23
2018-08-04T13:07:01.745Z,8.45
2018-08-04T13:09:33.134Z,8.10
2018-08-04T13:12:04.612Z,7.45
2018-08-04T13:14:36.150Z,7.92
2018-08-04T13:17:07.596Z,8.83
2018-08-04T13:19:38.819Z,9.10
2018-08-04T13:22:09.592Z,9.68
2018-08-04T13:24:40.833Z,9.85
2018-08-04T13:27:12.352Z,9.05
2018-08-04T13:29:43.754Z,8.88
2018-08-04T13:32:16.042Z,8.20
2018-08-04T13:34:47.551Z,8.60
2018-08-04T13:37:19.056Z,8.63
2018-08-04T13:39:50.497Z,8.05
2018-08-04T13:42:21.914Z,9.85
2018-08-04T13:44:53.525Z,9.05
2018-08-04T13:47:24.872Z,8.60
2018-08-04T13:49:56.265Z,12.63
2018-08-04T13:52:27.837Z,9.40
2018-08-04T13:54:59.255Z,9.35
2018-08-04T13:57:30.693Z,8.50
2018-08-04T14:00:02.303Z,8.95
2018-08-04T14:02:33.719Z,8.80
2018-08-04T14:05:05.424Z,9.38
2018-08-04T14:07:37.022Z,8.48
2018-08-04T14:10:08.340Z,8.53
2018-08-04T14:12:39.956Z,8.28
2018-08-04T14:15:11.247Z,8.65
2018-08-04T14:17:42.812Z,8.58
2018-08-04T14:20:14.076Z,8.00
2018-08-04T14:22:45.641Z,8.48
2018-08-04T14:25:17.117Z,8.40
2018-08-04T14:27:48.531Z,8.35
2018-08-04T14:30:19.923Z,8.05
2018-08-04T14:32:51.343Z,8.78
2018-08-04T14:35:22.946Z,12.82
2018-08-04T14:37:54.562Z,8.60
2018-08-04T14:40:26.054Z,8.80
2018-08-04T14:42:57.426Z,8.78
2018-08-04T14:45:28.661Z,8.28
2018-08-04T14:48:00.035Z,10.43
2018-08-04T14:50:31.462Z,8.88
2018-08-04T14:53:02.954Z,9.15
2018-08-04T14:55:34.352Z,8.93
2018-08-04T14:58:06.027Z,9.80
2018-08-04T15:00:37.451Z,8.83
2018-08-04T15:03:08.368Z,8.83
2018-08-04T15:05:39.730Z,10.63
2018-08-04T15:08:11.258Z,9.40
2018-08-04T15:10:42.642Z,10.88
2018-08-04T15:13:14.142Z,8.75
2018-08-04T15:15:45.808Z,8.40
2018-08-04T15:18:17.133Z,7.97
2018-08-04T15:20:48.777Z,8.65
2018-08-04T15:23:20.305Z,7.45
2018-08-04T15:25:51.863Z,7.30
2018-08-04T15:28:23.327Z,7.40
2018-08-04T15:30:54.926Z,7.08
2018-08-04T15:33:26.342Z,7.70
2018-08-04T15:35:57.829Z,8.03
2018-08-04T15:38:29.319Z,7.47
2018-08-04T15:41:00.771Z,7.35
2018-08-04T15:43:32.108Z,10.30
2018-08-04T15:46:03.543Z,6.78
2018-08-04T15:48:34.404Z,7.25
2018-08-04T15:51:05.875Z,7.22
2018-08-04T15:53:37.207Z,8.40
2018-08-04T15:56:09.626Z,7.55
2018-08-04T15:58:41.255Z,7.22
2018-08-04T16:01:12.685Z,6.58
2018-08-04T16:03:44.173Z,6.83
2018-08-04T16:06:15.954Z,6.87
2018-08-04T16:08:47.282Z,7.12
2018-08-04T16:11:18.882Z,7.10
2018-08-04T16:13:50.359Z,7.00
2018-08-04T16:16:21.839Z,8.00
2018-08-04T16:18:53.204Z,6.97
2018-08-04T16:21:24.698Z,7.22
2018-08-04T16:23:56.302Z,6.87
2018-08-04T16:26:27.983Z,8.55
2018-08-04T16:28:59.436Z,6.55
2018-08-04T16:31:30.995Z,6.22
2018-08-04T16:34:02.499Z,7.15
2018-08-04T16:36:34.116Z,7.03
2018-08-04T16:39:08.035Z,7.50
2018-08-04T16:41:39.574Z,8.18
2018-08-04T16:44:11.016Z,7.33
2018-08-04T16:46:42.299Z,7.83
2018-08-04T16:49:14.014Z,7.35
2018-08-04T16:51:45.791Z,7.80
2018-08-04T16:54:17.271Z,7.10
2018-08-04T16:56:48.855Z,6.72
2018-08-04T16:59:19.731Z,6.58
2018-08-04T17:01:51.079Z,6.78
2018-08-04T17:04:22.318Z,7.37
2018-08-04T17:06:53.771Z,6.90
2018-08-04T17:09:25.311Z,7.00
2018-08-04T17:11:56.701Z,6.87
2018-08-04T17:14:28.260Z,7.60
2018-08-04T17:16:59.802Z,8.33
2018-08-04T17:19:31.742Z,10.13
2018-08-04T17:22:03.683Z,8.50
2018-08-04T17:24:35.076Z,6.90
2018-08-04T17:27:07.161Z,8.00
2018-08-04T17:29:38.693Z,7.50
2018-08-04T17:32:10.347Z,7.12
2018-08-04T17:34:41.786Z,9.53
2018-08-04T17:37:13.422Z,8.80
2018-08-04T17:39:44.429Z,12.70
2018-08-04T17:42:15.605Z,9.35
2018-08-04T17:44:47.474Z,8.20
2018-08-04T17:47:18.922Z,7.50
2018-08-04T17:49:50.573Z,7.72
2018-08-04T17:52:22.446Z,7.03
2018-08-04T17:54:54.016Z,8.73
2018-08-04T17:57:25.470Z,14.30
2018-08-04T17:59:56.996Z,11.38
2018-08-04T18:02:28.347Z,8.73
2018-08-04T18:04:59.896Z,7.80
2018-08-04T18:07:31.390Z,8.23
2018-08-04T18:10:02.906Z,7.85
2018-08-04T18:12:34.411Z,8.43
2018-08-04T18:15:06.671Z,8.15
2018-08-04T18:17:38.163Z,7.60
2018-08-04T18:20:09.595Z,8.33
2018-08-04T18:22:40.848Z,8.03
2018-08-04T18:25:12.218Z,9.00
2018-08-04T18:27:43.807Z,10.40
2018-08-04T18:30:15.510Z,10.15
2018-08-04T18:32:46.932Z,9.53
2018-08-04T18:35:18.265Z,9.75
2018-08-04T18:37:49.891Z,11.38
2018-08-04T18:40:21.363Z,8.30
2018-08-04T18:42:53.187Z,9.00
2018-08-04T18:45:24.795Z,10.00
2018-08-04T18:47:56.438Z,8.20
2018-08-04T18:50:27.907Z,8.83
2018-08-04T18:52:59.433Z,7.87
2018-08-04T18:55:30.973Z,6.95
2018-08-04T18:58:02.475Z,6.58
2018-08-04T19:00:33.841Z,8.38
2018-08-04T19:03:05.239Z,9.48
2018-08-04T19:05:36.805Z,8.08
2018-08-04T19:08:08.691Z,8.20
2018-08-04T19:10:40.066Z,11.15
2018-08-04T19:13:11.406Z,9.35
2018-08-04T19:15:42.879Z,10.58
2018-08-04T19:18:14.504Z,9.50
2018-08-04T19:20:46.096Z,8.05
2018-08-04T19:23:17.680Z,6.45
2018-08-04T19:25:49.048Z,7.60
2018-08-04T19:28:21.249Z,7.85
2018-08-04T19:30:52.513Z,10.08
2018-08-04T19:33:23.803Z,7.65
2018-08-04T19:35:55.285Z,8.00
2018-08-04T19:38:26.428Z,9.38
2018-08-04T19:40:57.891Z,7.90
2018-08-04T19:43:29.747Z,7.67
2018-08-04T19:46:01.383Z,9.20
2018-08-04T19:48:32.945Z,9.35
2018-08-04T19:51:04.459Z,9.00
2018-08-04T19:53:35.659Z,8.28
2018-08-04T19:56:07.187Z,8.15
2018-08-04T19:58:38.734Z,8.20
2018-08-04T20:01:09.647Z,9.23
2018-08-04T20:03:40.845Z,7.92
2018-08-04T20:06:12.280Z,19.10
2018-08-04T20:08:43.787Z,14.87
2018-08-04T20:11:15.060Z,9.95
2018-08-04T20:13:46.553Z,9.93
2018-08-04T20:16:18.047Z,9.18
2018-08-04T20:18:49.593Z,11.18
2018-08-04T20:21:21.004Z,10.28
2018-08-04T20:23:52.530Z,10.08
2018-08-04T20:26:24.143Z,7.87
2018-08-04T20:28:55.642Z,7.50
2018-08-04T20:31:27.292Z,8.30
2018-08-04T20:33:58.544Z,7.65
2018-08-04T20:36:30.187Z,7.25
2018-08-04T20:39:01.952Z,8.55
2018-08-04T20:41:33.324Z,8.20
2018-08-04T20:44:04.939Z,7.05
2018-08-04T20:46:36.615Z,8.05
2018-08-04T20:49:08.363Z,8.30
2018-08-04T20:51:39.748Z,7.62
2018-08-04T20:54:11.439Z,8.55
2018-08-04T20:56:43.127Z,9.90
2018-08-04T20:59:16.632Z,8.83
2018-08-04T21:02:01.134Z,7.40
2018-08-04T21:04:33.555Z,8.00
2018-08-04T21:07:05.587Z,7.50
2018-08-04T21:09:37.153Z,7.95
2018-08-04T21:12:08.488Z,7.40
2018-08-04T21:14:39.359Z,7.78
2018-08-04T21:17:10.759Z,7.87
2018-08-04T21:19:42.366Z,7.85
2018-08-04T21:22:13.994Z,7.50
2018-08-04T21:24:45.439Z,8.65
2018-08-04T21:27:16.979Z,8.80
2018-08-04T21:29:48.472Z,9.05
2018-08-04T21:32:19.953Z,8.00
2018-08-04T21:34:51.290Z,7.62
2018-08-04T21:37:22.908Z,7.75
2018-08-04T21:39:54.540Z,7.92
2018-08-04T21:42:25.955Z,7.33
2018-08-04T21:44:57.737Z,7.25
2018-08-04T21:47:29.348Z,8.10
2018-08-04T21:50:00.815Z,8.18
2018-08-04T21:52:32.431Z,8.03
2018-08-04T21:55:03.771Z,7.97
2018-08-04T21:57:35.184Z,7.80
2018-08-04T22:00:11.484Z,7.62
2018-08-04T22:02:58.085Z,7.78
2018-08-04T22:05:30.123Z,9.63
2018-08-04T22:08:18.583Z,8.03
2018-08-04T22:10:49.918Z,7.97
2018-08-04T22:13:22.036Z,7.20
2018-08-04T22:15:53.486Z,8.53
2018-08-04T22:18:24.938Z,9.38
2018-08-04T22:20:56.470Z,7.55
2018-08-04T22:23:27.923Z,8.05
2018-08-04T22:25:59.363Z,8.78
2018-08-04T22:28:30.950Z,9.95
2018-08-04T22:31:02.518Z,9.18
2018-08-04T22:33:34.141Z,12.95
2018-08-04T22:36:05.668Z,8.45
2018-08-04T22:38:37.068Z,8.75
2018-08-04T22:41:10.088Z,8.83
2018-08-04T22:43:41.400Z,8.50
2018-08-04T22:46:16.777Z,8.88
2018-08-04T22:48:50.327Z,8.48
2018-08-04T22:51:25.654Z,8.85
2018-08-04T22:53:57.114Z,8.75
2018-08-04T22:56:28.480Z,8.65
2018-08-04T22:59:00.145Z,9.48
2018-08-04T23:01:31.721Z,9.10
2018-08-04T23:04:03.447Z,8.58
2018-08-04T23:06:34.834Z,7.95
2018-08-04T23:09:07.496Z,8.15
2018-08-04T23:11:39.084Z,8.98
2018-08-04T23:14:10.417Z,8.93
2018-08-04T23:16:42.003Z,9.48
2018-08-04T23:19:13.404Z,9.43
2018-08-04T23:21:44.957Z,7.78
2018-08-04T23:24:16.437Z,8.80
2018-08-04T23:26:47.800Z,8.53
2018-08-04T23:29:19.293Z,8.38
2018-08-04T23:31:50.768Z,10.25
2018-08-04T23:34:22.344Z,8.68
2018-08-04T23:36:54.012Z,9.68
2018-08-04T23:39:25.570Z,10.18
2018-08-04T23:41:57.144Z,9.38
2018-08-04T23:44:28.584Z,9.33
2018-08-04T23:46:59.922Z,9.25
2018-08-04T23:49:31.335Z,11.83
2018-08-04T23:52:02.925Z,9.45
2018-08-04T23:54:34.484Z,11.83
2018-08-04T23:57:07.077Z,10.35
2018-08-04T23:59:38.493Z,9.18
